createdAt,value
2019-03-31T00:00:28.668Z,29.03
2019-03-31T00:02:56.234Z,27.27
2019-03-31T00:05:23.739Z,30.17
2019-03-31T00:07:51.296Z,28.93
2019-03-31T00:10:18.767Z,102.23
2019-03-31T00:12:46.267Z,67.37
2019-03-31T00:15:13.783Z,31.47
2019-03-31T00:17:41.414Z,40.63
2019-03-31T00:20:08.922Z,72.97
2019-03-31T00:22:36.476Z,37.13
2019-03-31T00:25:04.039Z,30.17
2019-03-31T00:27:31.549Z,30.13
2019-03-31T00:29:59.033Z,29.00
2019-03-31T00:32:26.568Z,29.40
2019-03-31T00:34:54.136Z,30.00
2019-03-31T00:37:21.736Z,26.00
2019-03-31T00:39:49.280Z,33.17
2019-03-31T00:42:16.840Z,33.30
2019-03-31T00:44:44.311Z,29.70
2019-03-31T00:47:11.823Z,30.73
2019-03-31T00:49:39.298Z,32.63
2019-03-31T00:52:06.783Z,27.73
2019-03-31T00:54:34.318Z,35.20
2019-03-31T00:57:01.821Z,36.90
2019-03-31T00:59:29.359Z,33.10
2019-03-31T01:02:00.682Z,36.77
2019-03-31T01:04:30.674Z,34.93
2019-03-31T01:06:58.994Z,32.70
2019-03-31T01:09:28.928Z,36.30
2019-03-31T01:11:56.894Z,34.50
2019-03-31T01:14:24.697Z,37.40
2019-03-31T01:16:52.822Z,43.67
2019-03-31T01:19:20.808Z,45.27
2019-03-31T01:21:48.278Z,45.07
2019-03-31T01:24:15.807Z,38.77
2019-03-31T01:26:43.292Z,42.70
2019-03-31T01:29:12.377Z,37.10
2019-03-31T01:31:50.088Z,38.93
2019-03-31T01:34:09.691Z,43.40
2019-03-31T01:36:37.207Z,37.63
2019-03-31T01:39:06.682Z,38.63
2019-03-31T01:41:34.171Z,45.67
2019-03-31T01:44:01.656Z,43.60
2019-03-31T01:46:29.121Z,47.63
2019-03-31T01:48:56.613Z,53.00
2019-03-31T01:51:24.075Z,45.47
2019-03-31T01:53:51.590Z,46.37
2019-03-31T01:56:19.804Z,53.63
2019-03-31T01:58:47.298Z,46.87
2019-03-31T02:01:15.629Z,55.00
2019-03-31T02:03:43.135Z,50.57
2019-03-31T02:06:10.615Z,48.93
2019-03-31T02:08:38.193Z,51.33
2019-03-31T02:11:05.680Z,48.20
2019-03-31T02:13:33.174Z,49.03
2019-03-31T02:16:03.219Z,53.10
2019-03-31T02:18:30.680Z,49.90
2019-03-31T02:20:58.169Z,50.07
2019-03-31T02:23:25.659Z,46.00
2019-03-31T02:25:53.296Z,53.43
2019-03-31T02:28:20.761Z,56.60
2019-03-31T02:30:48.279Z,67.13
2019-03-31T02:33:15.737Z,49.13
2019-03-31T02:35:43.245Z,65.77
2019-03-31T02:38:10.819Z,64.43
2019-03-31T02:40:38.329Z,58.87
2019-03-31T02:43:05.813Z,65.57
2019-03-31T02:45:33.324Z,56.57
2019-03-31T02:48:00.835Z,58.57
2019-03-31T02:50:58.576Z,63.67
2019-03-31T02:53:26.069Z,56.83
2019-03-31T02:55:54.768Z,53.47
2019-03-31T02:58:22.681Z,56.70
2019-03-31T03:00:50.216Z,47.17
2019-03-31T03:03:18.495Z,49.90
2019-03-31T03:05:46.655Z,48.17
2019-03-31T03:08:16.022Z,54.03
2019-03-31T03:10:43.964Z,54.23
2019-03-31T03:13:13.554Z,57.53
2019-03-31T03:16:26.077Z,65.90
2019-03-31T03:18:53.568Z,68.13
2019-03-31T03:21:24.040Z,71.80
2019-03-31T03:23:50.595Z,68.53
2019-03-31T03:26:18.313Z,65.53
2019-03-31T03:28:45.889Z,76.47
2019-03-31T03:31:16.290Z,70.47
2019-03-31T03:33:43.575Z,65.40
2019-03-31T03:36:11.394Z,69.87
2019-03-31T03:38:38.860Z,72.10
2019-03-31T03:41:06.370Z,69.53
2019-03-31T03:43:33.860Z,76.27
2019-03-31T03:46:01.374Z,73.83
2019-03-31T03:48:28.854Z,68.47
2019-03-31T03:50:56.364Z,69.37
2019-03-31T03:53:23.837Z,70.80
2019-03-31T03:55:51.343Z,64.97
2019-03-31T03:58:18.882Z,74.27
2019-03-31T04:00:46.389Z,77.30
2019-03-31T04:03:29.232Z,77.50
2019-03-31T04:05:43.271Z,67.27
2019-03-31T04:08:10.856Z,74.97
2019-03-31T04:11:20.767Z,74.10
2019-03-31T04:13:46.290Z,65.80
2019-03-31T04:16:13.893Z,75.23
2019-03-31T04:18:41.434Z,65.97
2019-03-31T04:21:09.037Z,73.43
2019-03-31T04:23:36.513Z,68.77
2019-03-31T04:26:04.043Z,75.50
2019-03-31T04:28:31.538Z,67.53
2019-03-31T04:30:59.072Z,64.83
2019-03-31T04:33:26.560Z,67.97
2019-03-31T04:35:54.104Z,72.10
2019-03-31T04:38:21.594Z,67.93
2019-03-31T04:40:49.115Z,68.40
2019-03-31T04:43:16.583Z,64.30
2019-03-31T04:45:44.103Z,79.73
2019-03-31T04:48:11.595Z,74.10
2019-03-31T04:50:39.144Z,73.70
2019-03-31T04:53:06.705Z,82.17
2019-03-31T04:55:34.227Z,78.30
2019-03-31T04:58:01.752Z,72.17
2019-03-31T05:00:29.230Z,82.07
2019-03-31T05:02:56.746Z,70.30
2019-03-31T05:05:24.302Z,86.33
2019-03-31T05:07:51.860Z,80.13
2019-03-31T05:10:19.347Z,76.87
2019-03-31T05:12:46.864Z,76.97
2019-03-31T05:15:14.354Z,77.17
2019-03-31T05:17:41.869Z,80.20
2019-03-31T05:20:09.433Z,85.07
2019-03-31T05:22:36.956Z,84.93
2019-03-31T05:25:04.561Z,92.63
2019-03-31T05:27:32.080Z,80.27
2019-03-31T05:29:59.562Z,80.23
2019-03-31T05:32:27.186Z,86.97
2019-03-31T05:34:54.716Z,87.90
2019-03-31T05:37:22.218Z,91.30
2019-03-31T05:39:49.865Z,74.93
2019-03-31T05:42:17.395Z,83.03
2019-03-31T05:44:44.864Z,77.60
2019-03-31T05:47:12.391Z,75.30
2019-03-31T05:49:39.902Z,77.17
2019-03-31T05:52:07.430Z,81.40
2019-03-31T05:54:35.257Z,73.73
2019-03-31T05:57:03.175Z,71.47
2019-03-31T05:59:30.733Z,73.47
2019-03-31T06:01:58.295Z,75.00
2019-03-31T06:04:33.127Z,67.23
2019-03-31T06:06:55.275Z,66.33
2019-03-31T06:09:22.762Z,75.30
2019-03-31T06:11:53.262Z,76.27
2019-03-31T06:14:19.675Z,67.60
2019-03-31T06:16:47.373Z,73.83
2019-03-31T06:19:14.871Z,73.17
2019-03-31T06:21:42.419Z,59.97
2019-03-31T06:24:09.907Z,73.67
2019-03-31T06:26:37.529Z,51.87
2019-03-31T06:29:05.010Z,67.73
2019-03-31T06:31:32.531Z,56.37
2019-03-31T06:34:00.056Z,68.60
2019-03-31T06:36:27.562Z,66.10
2019-03-31T06:38:55.060Z,65.13
2019-03-31T06:41:22.560Z,57.27
2019-03-31T06:43:50.094Z,68.00
2019-03-31T06:46:17.684Z,64.93
2019-03-31T06:48:45.199Z,61.43
2019-03-31T06:51:12.678Z,54.93
2019-03-31T06:53:40.196Z,50.23
2019-03-31T06:56:07.700Z,50.43
2019-03-31T06:58:35.234Z,46.73
2019-03-31T07:01:02.862Z,41.50
2019-03-31T07:03:30.395Z,44.27
2019-03-31T07:05:57.974Z,44.77
2019-03-31T07:08:25.488Z,39.43
2019-03-31T07:10:53.010Z,32.80
2019-03-31T07:13:20.525Z,38.80
2019-03-31T07:15:48.105Z,42.60
2019-03-31T07:18:16.043Z,30.40
2019-03-31T07:20:43.645Z,34.93
2019-03-31T07:23:11.328Z,32.07
2019-03-31T07:25:38.817Z,28.90
2019-03-31T07:28:06.393Z,33.50
2019-03-31T07:30:33.867Z,28.30
2019-03-31T07:33:01.410Z,29.87
2019-03-31T07:35:28.910Z,26.30
2019-03-31T07:37:56.690Z,26.97
2019-03-31T07:40:24.413Z,21.03
2019-03-31T07:42:52.363Z,23.10
2019-03-31T07:45:20.058Z,24.63
2019-03-31T07:47:47.559Z,21.73
2019-03-31T07:50:15.872Z,23.50
2019-03-31T07:52:43.626Z,28.97
2019-03-31T07:55:11.551Z,20.50
2019-03-31T07:57:39.121Z,20.73
2019-03-31T08:00:10.474Z,18.03
2019-03-31T08:02:37.998Z,16.67
2019-03-31T08:05:07.962Z,17.17
2019-03-31T08:07:36.208Z,16.33
2019-03-31T08:10:04.435Z,19.47
2019-03-31T08:12:31.971Z,19.70
2019-03-31T08:14:59.499Z,14.30
2019-03-31T08:17:27.004Z,16.30
2019-03-31T08:19:54.567Z,17.47
2019-03-31T08:22:22.093Z,19.67
2019-03-31T08:24:49.578Z,17.67
2019-03-31T08:27:18.942Z,18.47
2019-03-31T08:29:53.064Z,17.73
2019-03-31T08:32:15.856Z,17.57
2019-03-31T08:34:43.611Z,13.57
2019-03-31T08:37:11.344Z,10.00
2019-03-31T08:39:38.961Z,12.97
2019-03-31T08:42:06.550Z,15.17
2019-03-31T08:44:34.091Z,15.87
2019-03-31T08:47:01.631Z,17.40
2019-03-31T08:49:29.351Z,12.67
2019-03-31T08:51:56.864Z,12.03
2019-03-31T08:54:24.505Z,17.30
2019-03-31T08:56:52.081Z,15.67
2019-03-31T08:59:19.660Z,16.67
2019-03-31T09:01:47.137Z,11.87
2019-03-31T09:04:14.644Z,11.77
2019-03-31T09:06:42.151Z,18.90
2019-03-31T09:09:09.700Z,14.07
2019-03-31T09:11:37.210Z,15.60
2019-03-31T09:14:04.982Z,12.70
2019-03-31T09:16:32.637Z,12.70
2019-03-31T09:19:00.244Z,11.90
2019-03-31T09:21:27.825Z,12.80
2019-03-31T09:23:55.744Z,9.43
2019-03-31T09:26:23.231Z,9.60
2019-03-31T09:28:50.786Z,9.50
2019-03-31T09:31:18.287Z,11.13
2019-03-31T09:33:45.909Z,6.50
2019-03-31T09:36:16.530Z,9.70
2019-03-31T09:38:43.023Z,12.90
2019-03-31T09:41:10.542Z,10.40
2019-03-31T09:43:38.040Z,12.30
2019-03-31T09:46:05.764Z,16.40
2019-03-31T09:48:33.321Z,13.10
2019-03-31T09:51:04.184Z,9.40
2019-03-31T09:53:31.699Z,14.97
2019-03-31T09:55:59.176Z,7.50
2019-03-31T09:58:26.782Z,14.20
2019-03-31T10:00:54.646Z,6.77
2019-03-31T10:03:22.240Z,11.37
2019-03-31T10:05:49.989Z,9.83
2019-03-31T10:08:21.545Z,8.80
2019-03-31T10:10:47.352Z,9.97
2019-03-31T10:13:14.842Z,10.03
2019-03-31T10:15:42.378Z,6.60
2019-03-31T10:18:09.938Z,10.30
2019-03-31T10:20:37.967Z,8.23
2019-03-31T10:23:06.101Z,10.07
2019-03-31T10:25:34.334Z,10.00
2019-03-31T10:28:02.264Z,5.93
2019-03-31T10:30:34.549Z,6.53
2019-03-31T10:33:03.323Z,11.00
2019-03-31T10:35:31.179Z,10.57
2019-03-31T10:37:58.655Z,8.40
2019-03-31T10:40:26.283Z,7.93
2019-03-31T10:42:53.867Z,9.13
2019-03-31T10:45:23.999Z,9.30
2019-03-31T10:47:51.514Z,10.00
2019-03-31T10:50:19.215Z,15.03
2019-03-31T10:52:46.941Z,12.47
2019-03-31T10:55:14.748Z,9.83
2019-03-31T10:57:42.271Z,10.57
2019-03-31T11:00:10.605Z,8.90
2019-03-31T11:02:38.111Z,19.13
2019-03-31T11:05:06.972Z,11.03
2019-03-31T11:07:34.770Z,10.93
2019-03-31T11:10:02.349Z,8.60
2019-03-31T11:12:29.845Z,5.67
2019-03-31T11:14:57.359Z,9.37
2019-03-31T11:17:24.834Z,8.97
2019-03-31T11:19:52.377Z,4.23
2019-03-31T11:22:33.319Z,4.57
2019-03-31T11:25:00.903Z,9.87
2019-03-31T11:27:28.386Z,5.73
2019-03-31T11:29:55.913Z,5.97
2019-03-31T11:32:23.396Z,4.73
2019-03-31T11:34:50.918Z,6.63
2019-03-31T11:37:18.413Z,6.80
2019-03-31T11:39:45.935Z,7.53
2019-03-31T11:42:13.418Z,9.10
2019-03-31T11:44:40.905Z,6.77
2019-03-31T11:47:08.914Z,6.10
2019-03-31T11:49:36.414Z,10.27
2019-03-31T11:52:03.962Z,8.07
2019-03-31T11:54:31.473Z,6.27
2019-03-31T11:56:59.004Z,11.03
2019-03-31T11:59:26.520Z,7.63
2019-03-31T12:01:54.040Z,11.90
2019-03-31T12:04:21.531Z,12.00
2019-03-31T12:06:49.063Z,8.67
2019-03-31T12:09:16.552Z,16.13
2019-03-31T12:11:45.632Z,9.30
2019-03-31T12:14:13.453Z,9.23
2019-03-31T12:16:40.970Z,7.03
2019-03-31T12:19:08.548Z,7.00
2019-03-31T12:21:36.072Z,12.03
2019-03-31T12:24:03.595Z,6.77
2019-03-31T12:26:31.107Z,6.23
2019-03-31T12:28:58.636Z,7.97
2019-03-31T12:31:26.327Z,10.00
2019-03-31T12:33:53.811Z,4.23
2019-03-31T12:36:21.344Z,7.03
2019-03-31T12:38:48.862Z,10.77
2019-03-31T12:41:16.381Z,6.23
2019-03-31T12:43:43.867Z,10.70
2019-03-31T12:46:11.437Z,8.53
2019-03-31T12:48:39.956Z,12.33
2019-03-31T12:51:07.477Z,14.57
2019-03-31T12:53:35.003Z,15.43
2019-03-31T12:56:03.643Z,9.27
2019-03-31T12:58:33.040Z,9.50
2019-03-31T13:01:02.833Z,3.73
2019-03-31T13:03:30.968Z,6.83
2019-03-31T13:05:58.656Z,6.73
2019-03-31T13:08:26.251Z,14.17
2019-03-31T13:10:53.763Z,5.73
2019-03-31T13:13:21.275Z,5.87
2019-03-31T13:15:48.763Z,8.80
2019-03-31T13:18:16.380Z,4.03
2019-03-31T13:20:43.880Z,10.03
2019-03-31T13:23:11.417Z,5.93
2019-03-31T13:25:38.891Z,9.93
2019-03-31T13:28:06.416Z,7.93
2019-03-31T13:30:33.957Z,7.43
2019-03-31T13:33:02.008Z,8.33
2019-03-31T13:35:29.488Z,11.87
2019-03-31T13:38:10.409Z,6.50
2019-03-31T13:40:26.409Z,6.43
2019-03-31T13:42:53.915Z,8.80
2019-03-31T13:45:21.400Z,7.10
2019-03-31T13:47:48.933Z,7.33
2019-03-31T13:50:16.782Z,13.27
2019-03-31T13:52:44.304Z,9.30
2019-03-31T13:55:11.909Z,7.00
2019-03-31T13:57:41.813Z,6.23
2019-03-31T14:00:10.917Z,4.30
2019-03-31T14:02:38.565Z,7.43
2019-03-31T14:05:06.550Z,8.77
2019-03-31T14:07:34.152Z,10.33
2019-03-31T14:10:01.667Z,7.47
2019-03-31T14:12:29.172Z,8.10
2019-03-31T14:14:56.663Z,4.90
2019-03-31T14:17:25.656Z,5.20
2019-03-31T14:19:53.141Z,6.60
2019-03-31T14:22:20.768Z,8.30
2019-03-31T14:24:48.241Z,9.10
2019-03-31T14:27:15.799Z,7.20
2019-03-31T14:29:43.263Z,7.80
2019-03-31T14:32:10.784Z,12.40
2019-03-31T14:34:38.269Z,10.93
2019-03-31T14:37:05.770Z,10.33
2019-03-31T14:39:33.255Z,8.40
2019-03-31T14:42:00.756Z,8.10
2019-03-31T14:44:28.401Z,3.40
2019-03-31T14:46:55.882Z,11.57
2019-03-31T14:49:25.872Z,6.70
2019-03-31T14:51:52.783Z,8.27
2019-03-31T14:54:20.362Z,10.80
2019-03-31T14:56:47.837Z,5.87
2019-03-31T14:59:15.414Z,6.50
2019-03-31T15:01:43.941Z,10.93
2019-03-31T15:04:11.439Z,2.97
2019-03-31T15:06:38.904Z,7.03
2019-03-31T15:09:07.354Z,14.83
2019-03-31T15:11:34.877Z,6.20
2019-03-31T15:14:02.741Z,8.33
2019-03-31T15:16:30.233Z,8.23
2019-03-31T15:18:57.741Z,6.17
2019-03-31T15:21:25.380Z,10.17
2019-03-31T15:23:52.891Z,7.13
2019-03-31T15:26:20.375Z,5.87
2019-03-31T15:28:48.045Z,7.93
2019-03-31T15:31:15.888Z,12.20
2019-03-31T15:33:43.472Z,6.83
2019-03-31T15:36:10.969Z,6.30
2019-03-31T15:38:38.479Z,6.47
2019-03-31T15:41:05.948Z,8.87
2019-03-31T15:43:33.445Z,5.83
2019-03-31T15:46:00.924Z,6.50
2019-03-31T15:48:28.454Z,5.47
2019-03-31T15:50:55.941Z,8.53
2019-03-31T15:53:23.547Z,6.27
2019-03-31T15:55:51.138Z,5.57
2019-03-31T15:58:18.701Z,4.30
2019-03-31T16:00:46.189Z,8.47
2019-03-31T16:03:14.352Z,5.80
2019-03-31T16:05:41.888Z,6.27
2019-03-31T16:08:08.907Z,9.33
2019-03-31T16:10:35.855Z,5.00
2019-03-31T16:13:03.126Z,7.27
2019-03-31T16:15:30.158Z,5.83
2019-03-31T16:17:57.105Z,4.70
2019-03-31T16:20:24.090Z,8.60
2019-03-31T16:22:51.028Z,10.50
2019-03-31T16:25:29.806Z,12.73
2019-03-31T16:27:57.405Z,6.67
2019-03-31T16:30:24.625Z,15.80
2019-03-31T16:33:07.607Z,12.13
2019-03-31T16:35:34.590Z,6.10
2019-03-31T16:38:01.536Z,8.70
2019-03-31T16:40:28.511Z,7.03
2019-03-31T16:42:55.465Z,6.60
2019-03-31T16:45:22.544Z,9.57
2019-03-31T16:47:49.510Z,6.83
2019-03-31T16:50:16.504Z,9.27
2019-03-31T16:52:43.553Z,8.60
2019-03-31T16:55:11.261Z,4.13
2019-03-31T16:57:38.209Z,6.93
2019-03-31T17:00:05.756Z,6.10
2019-03-31T17:02:32.849Z,12.83
2019-03-31T17:05:21.714Z,7.23
2019-03-31T17:07:40.473Z,7.83
2019-03-31T17:10:08.063Z,12.37
2019-03-31T17:12:34.991Z,9.73
2019-03-31T17:15:02.846Z,5.10
2019-03-31T17:17:29.892Z,9.53
2019-03-31T17:20:06.782Z,9.27
2019-03-31T17:22:34.166Z,10.33
2019-03-31T17:25:03.035Z,7.27
2019-03-31T17:27:30.064Z,4.27
2019-03-31T17:29:57.034Z,6.90
2019-03-31T17:32:23.972Z,11.47
2019-03-31T17:34:50.961Z,4.50
2019-03-31T17:37:17.917Z,4.93
2019-03-31T17:39:44.930Z,8.53
2019-03-31T17:42:13.777Z,9.43
2019-03-31T17:44:42.452Z,9.03
2019-03-31T17:47:09.414Z,11.20
2019-03-31T17:49:36.483Z,7.80
2019-03-31T17:52:05.240Z,8.97
2019-03-31T17:54:32.239Z,6.20
2019-03-31T17:56:59.209Z,11.80
2019-03-31T17:59:26.252Z,6.67
2019-03-31T18:01:53.222Z,2.70
2019-03-31T18:04:20.323Z,4.60
2019-03-31T18:06:47.271Z,6.23
2019-03-31T18:09:14.202Z,4.53
2019-03-31T18:11:41.183Z,7.47
2019-03-31T18:14:08.154Z,5.33
2019-03-31T18:16:35.210Z,6.13
2019-03-31T18:19:02.215Z,2.53
2019-03-31T18:21:29.321Z,3.57
2019-03-31T18:23:56.279Z,6.13
2019-03-31T18:26:23.348Z,5.27
2019-03-31T18:28:50.519Z,6.97
2019-03-31T18:31:49.745Z,9.47
2019-03-31T18:34:16.703Z,6.10
2019-03-31T18:36:43.676Z,12.00
2019-03-31T18:39:10.611Z,8.90
2019-03-31T18:41:37.585Z,11.20
2019-03-31T18:44:04.556Z,3.63
2019-03-31T18:46:31.746Z,10.77
2019-03-31T18:48:58.697Z,5.13
2019-03-31T18:51:25.696Z,7.17
2019-03-31T18:54:09.815Z,8.60
2019-03-31T18:56:56.434Z,11.03
2019-03-31T18:59:43.023Z,6.87
2019-03-31T19:02:28.606Z,6.67
2019-03-31T19:05:27.677Z,9.40
2019-03-31T19:08:21.989Z,4.13
2019-03-31T19:11:15.033Z,9.40
2019-03-31T19:14:00.864Z,10.50
2019-03-31T19:16:46.032Z,8.10
2019-03-31T19:19:29.152Z,8.00
2019-03-31T19:22:05.317Z,7.83
2019-03-31T19:24:48.413Z,6.93
2019-03-31T19:27:33.504Z,6.57
2019-03-31T19:30:16.504Z,14.93
2019-03-31T19:33:02.085Z,4.93
2019-03-31T19:36:04.180Z,5.47
2019-03-31T19:38:59.668Z,7.03
2019-03-31T19:41:58.161Z,5.67
2019-03-31T19:44:34.520Z,6.47
2019-03-31T19:47:28.678Z,4.50
2019-03-31T19:50:15.246Z,20.33
2019-03-31T19:52:50.075Z,6.40
2019-03-31T19:56:06.956Z,7.27
2019-03-31T19:59:00.281Z,6.13
2019-03-31T20:01:49.954Z,7.03
2019-03-31T20:04:29.757Z,11.47
2019-03-31T20:07:22.192Z,11.43
2019-03-31T20:10:00.378Z,7.70
2019-03-31T20:12:42.641Z,7.93
2019-03-31T20:15:44.293Z,9.13
2019-03-31T20:18:21.096Z,10.10
2019-03-31T20:20:58.030Z,6.77
2019-03-31T20:23:33.712Z,11.00
2019-03-31T20:26:18.993Z,4.33
2019-03-31T20:29:15.396Z,11.40
2019-03-31T20:31:54.653Z,8.77
2019-03-31T20:34:27.711Z,6.77
2019-03-31T20:37:03.498Z,12.67
2019-03-31T20:39:56.963Z,6.97
2019-03-31T20:42:42.207Z,5.03
2019-03-31T20:45:09.565Z,6.57
2019-03-31T20:47:36.645Z,5.43
2019-03-31T20:50:04.391Z,7.97
2019-03-31T20:52:31.361Z,6.23
2019-03-31T20:54:58.306Z,5.70
2019-03-31T20:57:25.298Z,12.00
2019-03-31T20:59:52.300Z,15.53
2019-03-31T21:02:19.422Z,5.40
2019-03-31T21:04:46.384Z,7.67
2019-03-31T21:07:13.463Z,4.47
2019-03-31T21:09:45.159Z,8.47
2019-03-31T21:12:09.442Z,6.00
2019-03-31T21:14:36.384Z,8.70
2019-03-31T21:17:03.377Z,6.37
2019-03-31T21:19:30.800Z,8.63
2019-03-31T21:21:57.775Z,7.33
2019-03-31T21:24:24.727Z,9.00
2019-03-31T21:26:53.164Z,5.60
2019-03-31T21:29:20.630Z,9.27
2019-03-31T21:31:47.618Z,7.00
2019-03-31T21:34:14.572Z,6.43
2019-03-31T21:36:41.531Z,5.67
2019-03-31T21:39:10.082Z,3.70
2019-03-31T21:41:37.071Z,7.03
2019-03-31T21:44:04.153Z,4.87
2019-03-31T21:46:31.107Z,12.37
2019-03-31T21:48:58.143Z,5.43
2019-03-31T21:51:25.317Z,7.33
2019-03-31T21:53:52.291Z,3.70
2019-03-31T21:56:19.254Z,8.57
2019-03-31T21:58:46.258Z,3.73
2019-03-31T22:01:13.524Z,4.27
2019-03-31T22:03:40.715Z,11.03
2019-03-31T22:06:07.661Z,6.17
2019-03-31T22:08:34.683Z,2.40
2019-03-31T22:11:01.612Z,5.63
2019-03-31T22:13:28.703Z,10.80
2019-03-31T22:15:55.743Z,3.50
2019-03-31T22:18:22.732Z,2.10
2019-03-31T22:20:49.782Z,5.20
2019-03-31T22:23:16.768Z,5.60
2019-03-31T22:25:43.717Z,7.10
2019-03-31T22:28:10.759Z,3.23
2019-03-31T22:30:37.692Z,5.83
2019-03-31T22:33:05.092Z,2.80
2019-03-31T22:35:32.065Z,7.83
2019-03-31T22:38:02.576Z,5.67
2019-03-31T22:40:29.869Z,7.13
2019-03-31T22:42:57.077Z,6.00
2019-03-31T22:45:24.039Z,6.50
2019-03-31T22:47:51.037Z,6.93
2019-03-31T22:50:18.030Z,8.43
2019-03-31T22:52:44.966Z,4.63
2019-03-31T22:55:11.925Z,5.70
2019-03-31T22:57:38.886Z,4.80
2019-03-31T23:00:07.251Z,2.93
2019-03-31T23:02:35.421Z,9.23
2019-03-31T23:05:02.397Z,7.83
2019-03-31T23:07:29.342Z,1.73
2019-03-31T23:09:56.318Z,5.57
2019-03-31T23:12:23.265Z,3.60
2019-03-31T23:14:50.283Z,7.93
2019-03-31T23:17:17.218Z,4.83
2019-03-31T23:19:44.317Z,6.53
2019-03-31T23:22:11.255Z,5.70
2019-03-31T23:24:38.312Z,2.40
2019-03-31T23:27:05.241Z,3.63
2019-03-31T23:29:32.214Z,4.07
2019-03-31T23:31:59.142Z,2.60
2019-03-31T23:34:26.134Z,2.90
2019-03-31T23:36:53.077Z,1.67
2019-03-31T23:39:20.190Z,8.90
2019-03-31T23:41:47.132Z,7.97
2019-03-31T23:44:14.100Z,2.70
2019-03-31T23:46:41.056Z,5.70
2019-03-31T23:49:08.034Z,2.47
2019-03-31T23:51:34.978Z,3.33
2019-03-31T23:54:01.978Z,9.83
2019-03-31T23:56:28.924Z,6.20
2019-03-31T23:58:55.929Z,6.90
